createdAt,value
2018-12-25T00:02:10.614Z,2.80
2018-12-25T00:04:43.079Z,2.90
2018-12-25T00:07:15.611Z,2.90
2018-12-25T00:09:48.120Z,2.80
2018-12-25T00:12:20.866Z,2.70
2018-12-25T00:14:53.349Z,2.70
2018-12-25T00:17:25.816Z,2.70
2018-12-25T00:19:58.582Z,2.70
2018-12-25T00:22:31.197Z,2.70
2018-12-25T00:25:03.764Z,2.70
2018-12-25T00:27:36.086Z,2.70
2018-12-25T00:30:09.240Z,2.70
2018-12-25T00:32:42.093Z,2.70
2018-12-25T00:35:14.377Z,2.70
2018-12-25T00:37:46.868Z,2.70
2018-12-25T00:40:19.441Z,2.70
2018-12-25T00:42:51.762Z,2.70
2018-12-25T00:45:24.343Z,2.70
2018-12-25T00:47:56.776Z,2.60
2018-12-25T00:50:29.390Z,2.60
2018-12-25T00:53:01.891Z,2.60
2018-12-25T00:55:34.388Z,2.60
2018-12-25T00:58:07.144Z,2.60
2018-12-25T01:00:39.638Z,2.50
2018-12-25T01:03:11.899Z,2.50
2018-12-25T01:05:44.711Z,2.50
2018-12-25T01:08:17.220Z,2.50
2018-12-25T01:10:49.617Z,2.50
2018-12-25T01:13:22.166Z,2.50
2018-12-25T01:15:54.517Z,2.50
2018-12-25T01:18:30.321Z,2.50
2018-12-25T01:21:02.746Z,2.50
2018-12-25T01:23:35.167Z,2.50
2018-12-25T01:26:07.956Z,2.50
2018-12-25T01:28:40.671Z,2.50
2018-12-25T01:31:13.101Z,2.50
2018-12-25T01:33:45.518Z,2.60
2018-12-25T01:36:17.875Z,2.50
2018-12-25T01:38:50.322Z,2.50
2018-12-25T01:41:22.807Z,2.50
2018-12-25T01:43:55.375Z,2.50
2018-12-25T01:46:27.771Z,2.50
2018-12-25T01:49:00.107Z,2.50
2018-12-25T01:51:32.399Z,2.50
2018-12-25T01:54:04.932Z,2.50
2018-12-25T01:56:37.622Z,2.40
2018-12-25T01:59:10.005Z,2.40
2018-12-25T02:01:42.308Z,2.50
2018-12-25T02:04:14.846Z,2.50
2018-12-25T02:06:47.716Z,2.40
2018-12-25T02:09:19.912Z,2.40
2018-12-25T02:11:52.310Z,2.40
2018-12-25T02:14:24.700Z,2.50
2018-12-25T02:16:56.972Z,2.40
2018-12-25T02:19:29.343Z,2.40
2018-12-25T02:22:01.883Z,2.50
2018-12-25T02:24:34.159Z,2.40
2018-12-25T02:27:06.624Z,2.50
2018-12-25T02:29:38.895Z,2.50
2018-12-25T02:32:11.476Z,2.50
2018-12-25T02:34:43.886Z,2.40
2018-12-25T02:37:16.570Z,2.40
2018-12-25T02:39:49.129Z,2.50
2018-12-25T02:42:21.911Z,2.40
2018-12-25T02:44:54.452Z,2.50
2018-12-25T02:47:26.873Z,2.40
2018-12-25T02:49:59.167Z,2.30
2018-12-25T02:52:31.780Z,2.30
2018-12-25T02:55:04.400Z,2.30
2018-12-25T02:57:36.918Z,2.30
2018-12-25T03:00:10.449Z,2.30
2018-12-25T03:02:42.934Z,2.40
2018-12-25T03:05:15.498Z,2.30
2018-12-25T03:07:48.004Z,2.30
2018-12-25T03:10:20.602Z,2.30
2018-12-25T03:12:53.080Z,2.30
2018-12-25T03:15:25.945Z,2.30
2018-12-25T03:17:58.782Z,2.30
2018-12-25T03:20:31.322Z,2.40
2018-12-25T03:23:03.841Z,2.50
2018-12-25T03:25:36.325Z,2.50
2018-12-25T03:28:08.646Z,2.40
2018-12-25T03:30:40.890Z,2.40
2018-12-25T03:33:13.373Z,2.50
2018-12-25T03:35:45.888Z,2.50
2018-12-25T03:38:18.171Z,2.50
2018-12-25T03:40:50.688Z,2.50
2018-12-25T03:43:23.223Z,2.40
2018-12-25T03:45:55.670Z,2.40
2018-12-25T03:48:28.003Z,2.40
2018-12-25T03:51:00.651Z,2.40
2018-12-25T03:53:33.127Z,2.50
2018-12-25T03:56:05.644Z,2.40
2018-12-25T03:58:38.184Z,2.30
2018-12-25T04:01:10.429Z,2.30
2018-12-25T04:03:42.886Z,2.40
2018-12-25T04:06:15.332Z,2.50
2018-12-25T04:08:47.867Z,2.40
2018-12-25T04:11:20.109Z,2.40
2018-12-25T04:13:52.730Z,2.40
2018-12-25T04:16:25.117Z,2.40
2018-12-25T04:18:57.548Z,2.30
2018-12-25T04:21:30.001Z,2.30
2018-12-25T04:24:02.450Z,2.40
2018-12-25T04:26:34.967Z,2.30
2018-12-25T04:29:07.278Z,2.40
2018-12-25T04:31:39.708Z,2.40
2018-12-25T04:34:12.285Z,2.40
2018-12-25T04:36:45.034Z,2.40
2018-12-25T04:39:17.302Z,2.40
2018-12-25T04:41:49.656Z,2.40
2018-12-25T04:44:22.338Z,2.50
2018-12-25T04:46:54.684Z,2.50
2018-12-25T04:49:27.327Z,2.50
2018-12-25T04:52:00.243Z,2.50
2018-12-25T04:54:32.736Z,2.50
2018-12-25T04:57:05.236Z,2.50
2018-12-25T04:59:37.525Z,2.60
2018-12-25T05:02:10.076Z,2.50
2018-12-25T05:04:42.471Z,2.50
2018-12-25T05:07:15.348Z,2.50
2018-12-25T05:09:47.848Z,2.50
2018-12-25T05:12:20.216Z,2.60
2018-12-25T05:14:52.715Z,2.60
2018-12-25T05:17:25.157Z,2.60
2018-12-25T05:19:57.404Z,2.60
2018-12-25T05:22:29.789Z,2.50
2018-12-25T05:25:02.145Z,2.60
2018-12-25T05:27:34.427Z,2.50
2018-12-25T05:30:07.015Z,2.50
2018-12-25T05:32:39.431Z,2.50
2018-12-25T05:35:11.893Z,2.60
2018-12-25T05:37:44.488Z,2.70
2018-12-25T05:40:16.900Z,2.70
2018-12-25T05:42:49.171Z,2.60
2018-12-25T05:45:21.585Z,2.60
2018-12-25T05:47:54.011Z,2.60
2018-12-25T05:50:26.730Z,2.70
2018-12-25T05:52:59.055Z,2.70
2018-12-25T05:55:31.429Z,2.70
2018-12-25T05:58:03.978Z,2.70
2018-12-25T06:00:36.592Z,2.70
2018-12-25T06:03:09.294Z,2.70
2018-12-25T06:05:41.772Z,2.70
2018-12-25T06:08:14.555Z,2.80
2018-12-25T06:10:46.888Z,2.80
2018-12-25T06:13:19.414Z,2.80
2018-12-25T06:15:52.209Z,2.70
2018-12-25T06:18:24.566Z,2.70
2018-12-25T06:20:57.040Z,2.70
2018-12-25T06:23:29.502Z,2.70
2018-12-25T06:26:01.839Z,2.80
2018-12-25T06:28:34.379Z,2.90
2018-12-25T06:31:06.855Z,2.80
2018-12-25T06:33:39.425Z,2.80
2018-12-25T06:36:11.791Z,2.70
2018-12-25T06:38:44.256Z,2.90
2018-12-25T06:41:16.986Z,2.90
2018-12-25T06:43:49.368Z,2.90
2018-12-25T06:46:21.908Z,2.90
2018-12-25T06:48:54.552Z,2.90
2018-12-25T06:51:27.062Z,3.00
2018-12-25T06:53:59.640Z,3.00
2018-12-25T06:56:32.084Z,3.00
2018-12-25T06:59:04.283Z,3.00
2018-12-25T07:01:36.901Z,3.10
2018-12-25T07:04:09.582Z,3.10
2018-12-25T07:06:41.910Z,3.10
2018-12-25T07:09:14.455Z,3.20
2018-12-25T07:11:46.747Z,3.20
2018-12-25T07:14:19.005Z,3.20
2018-12-25T07:16:51.594Z,3.20
2018-12-25T07:19:24.112Z,3.30
2018-12-25T07:21:56.566Z,3.30
2018-12-25T07:24:29.255Z,3.40
2018-12-25T07:27:01.747Z,3.40
2018-12-25T07:29:34.271Z,3.40
2018-12-25T07:32:06.686Z,3.40
2018-12-25T07:34:39.379Z,3.50
2018-12-25T07:37:12.222Z,3.50
2018-12-25T07:39:44.691Z,3.50
2018-12-25T07:42:17.182Z,3.50
2018-12-25T07:44:49.298Z,3.60
2018-12-25T07:47:22.002Z,3.70
2018-12-25T07:49:54.839Z,3.70
2018-12-25T07:52:27.310Z,3.70
2018-12-25T07:54:59.706Z,3.70
2018-12-25T07:57:32.182Z,3.60
2018-12-25T08:00:04.886Z,3.60
2018-12-25T08:02:37.311Z,3.60
2018-12-25T08:05:09.724Z,3.50
2018-12-25T08:07:42.406Z,3.50
2018-12-25T08:10:14.722Z,3.50
2018-12-25T08:12:47.582Z,3.50
2018-12-25T08:15:20.225Z,3.40
2018-12-25T08:17:53.209Z,3.40
2018-12-25T08:20:25.744Z,3.40
2018-12-25T08:23:02.573Z,3.50
2018-12-25T08:25:32.467Z,3.40
2018-12-25T08:28:05.056Z,3.40
2018-12-25T08:30:37.642Z,3.40
2018-12-25T08:33:10.194Z,3.40
2018-12-25T08:35:42.931Z,3.40
2018-12-25T08:38:15.333Z,3.40
2018-12-25T08:40:47.949Z,3.50
2018-12-25T08:43:20.257Z,3.50
2018-12-25T08:45:52.547Z,3.50
2018-12-25T08:48:24.954Z,3.50
2018-12-25T08:50:57.569Z,3.60
2018-12-25T08:53:29.952Z,3.60
2018-12-25T08:56:02.551Z,3.60
2018-12-25T08:58:35.060Z,3.60
2018-12-25T09:01:07.355Z,3.80
2018-12-25T09:03:39.791Z,3.80
2018-12-25T09:06:12.726Z,3.90
2018-12-25T09:08:45.553Z,3.80
2018-12-25T09:11:18.103Z,3.80
2018-12-25T09:13:50.688Z,3.90
2018-12-25T09:16:23.334Z,3.90
2018-12-25T09:18:55.587Z,3.90
2018-12-25T09:21:28.363Z,4.00
2018-12-25T09:24:00.864Z,4.10
2018-12-25T09:26:33.321Z,4.10
2018-12-25T09:29:05.829Z,4.10
2018-12-25T09:31:38.302Z,4.00
2018-12-25T09:34:10.782Z,4.10
2018-12-25T09:36:43.159Z,4.10
2018-12-25T09:39:15.518Z,4.10
2018-12-25T09:41:47.969Z,4.10
2018-12-25T09:44:20.217Z,4.20
2018-12-25T09:46:52.673Z,4.10
2018-12-25T09:49:25.145Z,4.20
2018-12-25T09:51:58.549Z,4.20
2018-12-25T09:54:31.267Z,4.20
2018-12-25T09:57:04.025Z,4.20
2018-12-25T09:59:36.366Z,4.30
2018-12-25T10:02:08.724Z,4.30
2018-12-25T10:04:41.677Z,4.30
2018-12-25T10:07:14.210Z,4.40
2018-12-25T10:09:46.797Z,4.40
2018-12-25T10:12:19.285Z,4.50
2018-12-25T10:14:51.867Z,4.50
2018-12-25T10:17:25.279Z,4.50
2018-12-25T10:19:57.946Z,4.60
2018-12-25T10:22:30.286Z,4.60
2018-12-25T10:25:02.558Z,4.60
2018-12-25T10:27:35.146Z,4.60
2018-12-25T10:30:08.208Z,4.60
2018-12-25T10:32:40.516Z,4.50
2018-12-25T10:35:12.971Z,4.50
2018-12-25T10:37:45.586Z,4.40
2018-12-25T10:40:17.891Z,4.30
2018-12-25T10:42:50.152Z,4.30
2018-12-25T10:45:22.497Z,4.20
2018-12-25T10:47:54.942Z,4.00
2018-12-25T10:50:27.565Z,4.00
2018-12-25T10:53:00.119Z,4.00
2018-12-25T10:55:32.602Z,3.90
2018-12-25T10:58:05.341Z,3.90
2018-12-25T11:01:00.124Z,3.80
2018-12-25T11:03:32.484Z,3.80
2018-12-25T11:06:05.070Z,3.80
2018-12-25T11:08:37.332Z,3.80
2018-12-25T11:11:09.903Z,3.80
2018-12-25T11:13:42.403Z,3.80
2018-12-25T11:16:14.878Z,3.80
2018-12-25T11:18:49.142Z,3.70
2018-12-25T11:21:21.437Z,3.70
2018-12-25T11:23:54.922Z,3.80
2018-12-25T11:26:27.437Z,3.80
2018-12-25T11:29:00.005Z,3.70
2018-12-25T11:31:32.357Z,3.70
2018-12-25T11:34:05.028Z,3.70
2018-12-25T11:36:37.578Z,3.60
2018-12-25T11:39:10.632Z,3.70
2018-12-25T11:41:43.184Z,3.60
2018-12-25T11:44:15.727Z,3.70
2018-12-25T11:46:50.808Z,3.70
2018-12-25T11:49:23.424Z,3.70
2018-12-25T11:51:56.065Z,3.60
2018-12-25T11:54:28.550Z,3.70
2018-12-25T11:57:00.900Z,3.70
2018-12-25T11:59:33.333Z,3.70
2018-12-25T12:02:05.977Z,3.60
2018-12-25T12:04:38.299Z,3.60
2018-12-25T12:07:11.005Z,3.60
2018-12-25T12:09:43.672Z,3.60
2018-12-25T12:12:16.142Z,3.50
2018-12-25T12:14:48.567Z,3.50
2018-12-25T12:17:20.874Z,3.50
2018-12-25T12:19:53.675Z,3.60
2018-12-25T12:22:26.147Z,3.50
2018-12-25T12:24:58.600Z,3.50
2018-12-25T12:27:30.972Z,3.60
2018-12-25T12:30:05.474Z,3.60
2018-12-25T12:32:38.677Z,3.60
2018-12-25T12:35:11.196Z,3.60
2018-12-25T12:37:43.848Z,3.60
2018-12-25T12:40:16.708Z,3.60
2018-12-25T12:42:49.032Z,3.60
2018-12-25T12:45:21.399Z,3.70
2018-12-25T12:47:53.887Z,3.70
2018-12-25T12:50:26.240Z,3.80
2018-12-25T12:52:58.768Z,3.80
2018-12-25T12:55:31.384Z,3.90
2018-12-25T12:58:03.921Z,4.00
2018-12-25T13:00:36.548Z,4.10
2018-12-25T13:03:08.858Z,4.20
2018-12-25T13:05:41.307Z,4.10
2018-12-25T13:08:13.868Z,4.20
2018-12-25T13:10:46.698Z,4.30
2018-12-25T13:13:19.117Z,4.30
2018-12-25T13:15:51.593Z,4.30
2018-12-25T13:18:26.820Z,4.30
2018-12-25T13:20:59.101Z,4.30
2018-12-25T13:23:31.418Z,4.30
2018-12-25T13:26:04.046Z,4.40
2018-12-25T13:28:36.352Z,4.40
2018-12-25T13:31:11.640Z,4.50
2018-12-25T13:33:44.252Z,4.60
2018-12-25T13:36:17.007Z,4.60
2018-12-25T13:38:49.833Z,4.60
2018-12-25T13:41:22.250Z,4.60
2018-12-25T13:43:54.523Z,4.60
2018-12-25T13:46:27.140Z,4.60
2018-12-25T13:48:59.473Z,4.60
2018-12-25T13:51:32.056Z,4.60
2018-12-25T13:54:04.325Z,4.70
2018-12-25T13:56:37.031Z,4.70
2018-12-25T13:59:09.466Z,4.60
2018-12-25T14:01:41.792Z,4.70
2018-12-25T14:04:14.354Z,4.70
2018-12-25T14:06:46.655Z,4.70
2018-12-25T14:09:19.065Z,4.80
2018-12-25T14:11:51.980Z,4.80
2018-12-25T14:14:24.468Z,4.80
2018-12-25T14:16:57.161Z,4.80
2018-12-25T14:19:29.630Z,4.80
2018-12-25T14:22:02.056Z,4.80
2018-12-25T14:24:34.422Z,4.70
2018-12-25T14:27:07.092Z,4.70
2018-12-25T14:29:39.916Z,4.70
2018-12-25T14:32:12.371Z,4.70
2018-12-25T14:34:44.931Z,4.70
2018-12-25T14:37:17.450Z,4.70
2018-12-25T14:39:49.856Z,4.70
2018-12-25T14:42:22.386Z,4.60
2018-12-25T14:44:54.790Z,4.70
2018-12-25T14:47:27.264Z,4.70
2018-12-25T14:49:59.685Z,4.60
2018-12-25T14:52:32.040Z,4.60
2018-12-25T14:55:04.492Z,4.60
2018-12-25T14:57:37.219Z,4.60
2018-12-25T15:00:10.946Z,4.60
2018-12-25T15:02:43.424Z,4.50
2018-12-25T15:05:16.179Z,4.50
2018-12-25T15:07:48.865Z,4.50
2018-12-25T15:10:21.394Z,4.50
2018-12-25T15:12:53.636Z,4.50
2018-12-25T15:15:26.172Z,4.50
2018-12-25T15:17:58.665Z,4.50
2018-12-25T15:20:31.735Z,4.50
2018-12-25T15:23:04.544Z,4.50
2018-12-25T15:25:37.245Z,4.50
2018-12-25T15:28:09.569Z,4.50
2018-12-25T15:30:41.901Z,4.60
2018-12-25T15:33:14.455Z,4.60
2018-12-25T15:35:46.883Z,4.50
2018-12-25T15:38:19.297Z,4.60
2018-12-25T15:40:51.731Z,4.50
2018-12-25T15:43:24.190Z,4.60
2018-12-25T15:45:56.733Z,4.50
2018-12-25T15:48:29.334Z,4.50
2018-12-25T15:51:01.877Z,4.50
2018-12-25T15:53:37.057Z,4.50
2018-12-25T15:56:08.576Z,4.50
2018-12-25T15:58:41.269Z,4.50
2018-12-25T16:01:13.889Z,4.50
2018-12-25T16:03:46.278Z,4.50
2018-12-25T16:06:19.122Z,4.50
2018-12-25T16:08:51.981Z,4.50
2018-12-25T16:11:24.304Z,4.40
2018-12-25T16:13:56.578Z,4.40
2018-12-25T16:16:28.864Z,4.40
2018-12-25T16:19:01.355Z,4.40
2018-12-25T16:21:33.966Z,4.30
2018-12-25T16:24:06.370Z,4.30
2018-12-25T16:26:38.920Z,4.40
2018-12-25T16:29:11.302Z,4.40
2018-12-25T16:31:43.629Z,4.30
2018-12-25T16:34:16.053Z,4.30
2018-12-25T16:36:48.493Z,4.30
2018-12-25T16:39:21.042Z,4.30
2018-12-25T16:41:53.600Z,4.30
2018-12-25T16:44:25.985Z,4.30
2018-12-25T16:46:58.393Z,4.30
2018-12-25T16:49:30.726Z,4.40
2018-12-25T16:52:03.523Z,4.40
2018-12-25T16:54:36.422Z,4.50
2018-12-25T16:57:11.054Z,4.50
2018-12-25T16:59:43.563Z,4.50
2018-12-25T17:02:16.131Z,4.40
2018-12-25T17:04:48.581Z,4.50
2018-12-25T17:07:21.122Z,4.50
2018-12-25T17:09:53.509Z,4.50
2018-12-25T17:12:25.781Z,4.50
2018-12-25T17:14:58.523Z,4.40
2018-12-25T17:17:31.083Z,4.50
2018-12-25T17:20:03.737Z,4.50
2018-12-25T17:22:37.312Z,4.40
2018-12-25T17:25:10.227Z,4.40
2018-12-25T17:27:42.933Z,4.40
2018-12-25T17:30:15.423Z,4.50
2018-12-25T17:32:48.528Z,4.50
2018-12-25T17:35:21.367Z,4.50
2018-12-25T17:37:53.921Z,4.50
2018-12-25T17:40:26.217Z,4.50
2018-12-25T17:42:58.749Z,4.60
2018-12-25T17:45:31.225Z,4.60
2018-12-25T17:48:04.123Z,4.50
2018-12-25T17:50:36.817Z,4.60
2018-12-25T17:53:09.286Z,4.50
2018-12-25T17:55:41.708Z,4.50
2018-12-25T17:58:14.163Z,4.50
2018-12-25T18:00:46.881Z,4.50
2018-12-25T18:03:19.468Z,4.50
2018-12-25T18:05:52.136Z,4.50
2018-12-25T18:08:24.622Z,4.50
2018-12-25T18:10:57.300Z,4.50
2018-12-25T18:13:29.839Z,4.50
2018-12-25T18:16:02.154Z,4.50
2018-12-25T18:18:34.625Z,4.40
2018-12-25T18:21:07.409Z,4.50
2018-12-25T18:23:40.034Z,4.50
2018-12-25T18:26:12.577Z,4.40
2018-12-25T18:29:06.027Z,4.50
2018-12-25T18:31:38.512Z,4.40
2018-12-25T18:34:11.082Z,4.40
2018-12-25T18:36:43.713Z,4.40
2018-12-25T18:39:16.247Z,4.40
2018-12-25T18:41:49.008Z,4.30
2018-12-25T18:44:21.643Z,4.30
2018-12-25T18:46:54.643Z,4.30
2018-12-25T18:49:27.195Z,4.40
2018-12-25T18:51:59.657Z,4.40
2018-12-25T18:54:31.875Z,4.40
2018-12-25T18:57:04.478Z,4.40
2018-12-25T18:59:37.233Z,4.50
2018-12-25T19:02:09.790Z,4.50
2018-12-25T19:04:42.341Z,4.40
2018-12-25T19:07:14.881Z,4.40
2018-12-25T19:09:47.623Z,4.30
2018-12-25T19:12:20.154Z,4.40
2018-12-25T19:15:05.373Z,4.40
2018-12-25T19:17:37.877Z,4.40
2018-12-25T19:20:10.952Z,4.40
2018-12-25T19:22:43.262Z,4.30
2018-12-25T19:25:15.839Z,4.30
2018-12-25T19:27:48.303Z,4.30
2018-12-25T19:30:23.715Z,4.30
2018-12-25T19:32:56.226Z,4.30
2018-12-25T19:35:28.700Z,4.30
2018-12-25T19:38:01.428Z,4.30
2018-12-25T19:40:34.252Z,4.30
2018-12-25T19:43:06.862Z,4.30
2018-12-25T19:45:39.589Z,4.20
2018-12-25T19:48:11.851Z,4.30
2018-12-25T19:50:44.483Z,4.30
2018-12-25T19:53:16.953Z,4.30
2018-12-25T19:55:49.362Z,4.20
2018-12-25T19:58:22.043Z,4.20
2018-12-25T20:00:54.477Z,4.30
2018-12-25T20:03:41.807Z,4.30
2018-12-25T20:07:27.408Z,4.30
2018-12-25T20:10:47.896Z,4.30
2018-12-25T20:14:17.574Z,4.30
2018-12-25T20:18:06.276Z,4.30
2018-12-25T20:21:11.497Z,4.30
2018-12-25T20:25:14.008Z,4.30
2018-12-25T20:28:41.490Z,4.30
2018-12-25T20:32:19.572Z,4.30
2018-12-25T20:36:08.683Z,4.30
2018-12-25T20:39:54.693Z,4.30
2018-12-25T20:43:38.725Z,4.30
2018-12-25T20:47:12.826Z,4.30
2018-12-25T20:50:50.635Z,4.30
2018-12-25T20:54:39.629Z,4.40
2018-12-25T20:58:25.053Z,4.30
2018-12-25T21:01:51.471Z,4.30
2018-12-25T21:05:34.992Z,4.30
2018-12-25T21:09:32.958Z,4.30
2018-12-25T21:13:06.991Z,4.30
2018-12-25T21:16:50.149Z,4.30
2018-12-25T21:20:40.978Z,4.30
2018-12-25T21:24:06.414Z,4.30
2018-12-25T21:27:32.255Z,4.30
2018-12-25T21:30:14.628Z,4.30
2018-12-25T21:32:47.260Z,4.30
2018-12-25T21:35:27.447Z,4.30
2018-12-25T21:38:00.928Z,4.30
2018-12-25T21:40:33.876Z,4.30
2018-12-25T21:43:06.549Z,4.30
2018-12-25T21:45:39.066Z,4.30
2018-12-25T21:48:12.405Z,4.30
2018-12-25T21:50:44.949Z,4.30
2018-12-25T21:53:17.964Z,4.30
2018-12-25T21:55:50.844Z,4.30
2018-12-25T21:58:23.959Z,4.40
2018-12-25T22:00:56.725Z,4.30
2018-12-25T22:03:29.945Z,4.40
2018-12-25T22:06:02.295Z,4.40
2018-12-25T22:08:34.822Z,4.40
2018-12-25T22:11:07.242Z,4.40
2018-12-25T22:13:39.656Z,4.40
2018-12-25T22:16:12.649Z,4.40
2018-12-25T22:18:45.265Z,4.50
2018-12-25T22:21:17.584Z,4.40
2018-12-25T22:23:50.472Z,4.40
2018-12-25T22:26:24.339Z,4.30
2018-12-25T22:28:56.862Z,4.40
2018-12-25T22:31:29.279Z,4.50
2018-12-25T22:34:01.706Z,4.40
2018-12-25T22:36:33.940Z,4.40
2018-12-25T22:39:07.759Z,4.30
2018-12-25T22:41:40.219Z,4.30
2018-12-25T22:44:12.606Z,4.30
2018-12-25T22:46:45.222Z,4.30
2018-12-25T22:49:17.705Z,4.30
2018-12-25T22:51:50.044Z,4.30
2018-12-25T22:54:22.672Z,4.20
2018-12-25T22:56:54.909Z,4.30
2018-12-25T22:59:27.416Z,4.30
2018-12-25T23:01:59.871Z,4.30
2018-12-25T23:04:32.436Z,4.30
2018-12-25T23:07:04.913Z,4.30
2018-12-25T23:09:37.266Z,4.30
2018-12-25T23:12:09.809Z,4.30
2018-12-25T23:14:42.103Z,4.30
2018-12-25T23:17:14.628Z,4.20
2018-12-25T23:19:46.958Z,4.20
2018-12-25T23:22:19.542Z,4.30
2018-12-25T23:24:52.172Z,4.30
2018-12-25T23:27:24.549Z,4.30
2018-12-25T23:29:56.923Z,4.30
2018-12-25T23:32:29.197Z,4.30
2018-12-25T23:35:02.023Z,4.20
2018-12-25T23:37:34.540Z,4.30
2018-12-25T23:40:07.624Z,4.30
2018-12-25T23:42:40.151Z,4.30
2018-12-25T23:45:12.597Z,4.30
2018-12-25T23:47:45.063Z,4.20
2018-12-25T23:50:17.371Z,4.30
2018-12-25T23:52:50.080Z,4.20
2018-12-25T23:55:22.780Z,4.20
2018-12-25T23:57:55.142Z,4.20
